sensor_id;sensor_type;location;lat;lon;timestamp;P1;durP1;ratioP1;P2;durP2;ratioP2
53843;SDS011;39744;53.314;5.710;2023-09-18T00:02:00;165.02;;;49.83;;
53843;SDS011;39744;53.314;5.710;2023-09-18T00:04:26;132.25;;;43.40;;
53843;SDS011;39744;53.314;5.710;2023-09-18T00:06:52;133.18;;;43.00;;
53843;SDS011;39744;53.314;5.710;2023-09-18T00:09:19;126.10;;;42.70;;
53843;SDS011;39744;53.314;5.710;2023-09-18T00:11:45;117.47;;;39.53;;
53843;SDS011;39744;53.314;5.710;2023-09-18T00:14:11;87.05;;;34.55;;
53843;SDS011;39744;53.314;5.710;2023-09-18T00:16:37;76.03;;;34.13;;
53843;SDS011;39744;53.314;5.710;2023-09-18T00:19:04;58.85;;;31.77;;
53843;SDS011;39744;53.314;5.710;2023-09-18T00:21:32;68.63;;;33.53;;
53843;SDS011;39744;53.314;5.710;2023-09-18T00:23:58;100.47;;;38.83;;
53843;SDS011;39744;53.314;5.710;2023-09-18T00:26:25;66.53;;;32.08;;
53843;SDS011;39744;53.314;5.710;2023-09-18T00:28:51;71.30;;;30.55;;
53843;SDS011;39744;53.314;5.710;2023-09-18T00:31:18;65.35;;;31.60;;
53843;SDS011;39744;53.314;5.710;2023-09-18T00:33:44;56.78;;;29.65;;
53843;SDS011;39744;53.314;5.710;2023-09-18T00:36:10;69.32;;;32.30;;
53843;SDS011;39744;53.314;5.710;2023-09-18T00:38:36;70.30;;;33.15;;
53843;SDS011;39744;53.314;5.710;2023-09-18T00:41:02;58.53;;;31.00;;
53843;SDS011;39744;53.314;5.710;2023-09-18T00:43:28;52.05;;;31.95;;
53843;SDS011;39744;53.314;5.710;2023-09-18T00:45:54;79.28;;;35.75;;
53843;SDS011;39744;53.314;5.710;2023-09-18T00:48:21;58.15;;;32.13;;
53843;SDS011;39744;53.314;5.710;2023-09-18T00:50:47;66.18;;;33.50;;
53843;SDS011;39744;53.314;5.710;2023-09-18T00:53:14;64.18;;;33.30;;
53843;SDS011;39744;53.314;5.710;2023-09-18T00:55:41;69.70;;;34.53;;
53843;SDS011;39744;53.314;5.710;2023-09-18T00:58:07;78.90;;;34.90;;
53843;SDS011;39744;53.314;5.710;2023-09-18T01:00:33;79.93;;;35.50;;
53843;SDS011;39744;53.314;5.710;2023-09-18T01:03:00;118.63;;;40.50;;
53843;SDS011;39744;53.314;5.710;2023-09-18T01:05:30;100.85;;;37.35;;
53843;SDS011;39744;53.314;5.710;2023-09-18T01:07:56;111.60;;;37.35;;
53843;SDS011;39744;53.314;5.710;2023-09-18T01:10:23;95.53;;;36.72;;
53843;SDS011;39744;53.314;5.710;2023-09-18T01:12:55;90.97;;;35.70;;
53843;SDS011;39744;53.314;5.710;2023-09-18T01:15:32;73.88;;;33.97;;
53843;SDS011;39744;53.314;5.710;2023-09-18T01:18:00;74.55;;;32.38;;
53843;SDS011;39744;53.314;5.710;2023-09-18T01:20:28;79.15;;;32.95;;
53843;SDS011;39744;53.314;5.710;2023-09-18T01:22:54;69.65;;;30.25;;
53843;SDS011;39744;53.314;5.710;2023-09-18T01:25:20;66.30;;;31.92;;
53843;SDS011;39744;53.314;5.710;2023-09-18T01:27:46;67.47;;;32.53;;
53843;SDS011;39744;53.314;5.710;2023-09-18T01:30:15;65.90;;;32.67;;
53843;SDS011;39744;53.314;5.710;2023-09-18T01:32:42;60.30;;;32.67;;
53843;SDS011;39744;53.314;5.710;2023-09-18T01:35:09;53.20;;;30.65;;
53843;SDS011;39744;53.314;5.710;2023-09-18T01:37:36;65.00;;;32.88;;
53843;SDS011;39744;53.314;5.710;2023-09-18T01:40:03;46.65;;;29.88;;
53843;SDS011;39744;53.314;5.710;2023-09-18T01:42:31;47.13;;;29.00;;
53843;SDS011;39744;53.314;5.710;2023-09-18T01:44:57;46.97;;;29.55;;
53843;SDS011;39744;53.314;5.710;2023-09-18T01:47:24;85.85;;;35.92;;
53843;SDS011;39744;53.314;5.710;2023-09-18T01:49:52;62.33;;;32.13;;
53843;SDS011;39744;53.314;5.710;2023-09-18T01:52:18;50.20;;;28.95;;
53843;SDS011;39744;53.314;5.710;2023-09-18T01:54:44;94.13;;;35.55;;
53843;SDS011;39744;53.314;5.710;2023-09-18T01:57:10;59.65;;;33.42;;
53843;SDS011;39744;53.314;5.710;2023-09-18T01:59:37;64.30;;;31.95;;
53843;SDS011;39744;53.314;5.710;2023-09-18T02:02:04;94.70;;;37.38;;
53843;SDS011;39744;53.314;5.710;2023-09-18T02:04:32;57.90;;;32.25;;
53843;SDS011;39744;53.314;5.710;2023-09-18T02:06:58;59.85;;;31.95;;
53843;SDS011;39744;53.314;5.710;2023-09-18T02:09:24;55.67;;;32.75;;
53843;SDS011;39744;53.314;5.710;2023-09-18T02:11:51;50.45;;;32.35;;
53843;SDS011;39744;53.314;5.710;2023-09-18T02:14:17;59.17;;;33.22;;
53843;SDS011;39744;53.314;5.710;2023-09-18T02:16:43;49.83;;;31.50;;
53843;SDS011;39744;53.314;5.710;2023-09-18T02:19:11;47.45;;;31.88;;
53843;SDS011;39744;53.314;5.710;2023-09-18T02:21:38;48.08;;;32.00;;
53843;SDS011;39744;53.314;5.710;2023-09-18T02:24:04;46.95;;;32.70;;
53843;SDS011;39744;53.314;5.710;2023-09-18T02:26:32;51.17;;;33.50;;
53843;SDS011;39744;53.314;5.710;2023-09-18T02:28:59;48.53;;;31.67;;
53843;SDS011;39744;53.314;5.710;2023-09-18T02:31:25;65.30;;;35.10;;
53843;SDS011;39744;53.314;5.710;2023-09-18T02:33:52;43.55;;;31.73;;
53843;SDS011;39744;53.314;5.710;2023-09-18T02:36:18;53.72;;;33.28;;
53843;SDS011;39744;53.314;5.710;2023-09-18T02:38:44;55.33;;;34.45;;
53843;SDS011;39744;53.314;5.710;2023-09-18T02:41:10;53.92;;;33.78;;
53843;SDS011;39744;53.314;5.710;2023-09-18T02:43:37;57.90;;;36.13;;
53843;SDS011;39744;53.314;5.710;2023-09-18T02:46:03;59.60;;;35.95;;
53843;SDS011;39744;53.314;5.710;2023-09-18T02:48:30;53.40;;;35.00;;
53843;SDS011;39744;53.314;5.710;2023-09-18T02:50:59;51.13;;;34.17;;
53843;SDS011;39744;53.314;5.710;2023-09-18T02:53:25;52.35;;;33.70;;
53843;SDS011;39744;53.314;5.710;2023-09-18T02:55:53;51.55;;;33.72;;
53843;SDS011;39744;53.314;5.710;2023-09-18T02:58:19;49.28;;;32.63;;
53843;SDS011;39744;53.314;5.710;2023-09-18T03:00:47;44.45;;;31.60;;
53843;SDS011;39744;53.314;5.710;2023-09-18T03:03:14;42.97;;;30.77;;
53843;SDS011;39744;53.314;5.710;2023-09-18T03:05:40;49.75;;;32.08;;
53843;SDS011;39744;53.314;5.710;2023-09-18T03:08:07;44.92;;;30.83;;
53843;SDS011;39744;53.314;5.710;2023-09-18T03:10:34;54.05;;;33.85;;
53843;SDS011;39744;53.314;5.710;2023-09-18T03:13:01;47.13;;;31.80;;
53843;SDS011;39744;53.314;5.710;2023-09-18T03:15:27;56.40;;;33.60;;
53843;SDS011;39744;53.314;5.710;2023-09-18T03:17:53;45.08;;;32.05;;
53843;SDS011;39744;53.314;5.710;2023-09-18T03:20:21;41.88;;;29.52;;
53843;SDS011;39744;53.314;5.710;2023-09-18T03:22:53;50.53;;;32.58;;
53843;SDS011;39744;53.314;5.710;2023-09-18T03:25:20;49.30;;;32.20;;
53843;SDS011;39744;53.314;5.710;2023-09-18T03:27:47;49.63;;;32.00;;
53843;SDS011;39744;53.314;5.710;2023-09-18T03:30:13;48.38;;;32.10;;
53843;SDS011;39744;53.314;5.710;2023-09-18T03:32:42;44.03;;;29.88;;
53843;SDS011;39744;53.314;5.710;2023-09-18T03:35:10;42.20;;;30.33;;
53843;SDS011;39744;53.314;5.710;2023-09-18T03:37:50;44.72;;;30.20;;
53843;SDS011;39744;53.314;5.710;2023-09-18T03:40:16;56.33;;;32.72;;
53843;SDS011;39744;53.314;5.710;2023-09-18T03:42:42;46.72;;;30.02;;
53843;SDS011;39744;53.314;5.710;2023-09-18T03:45:10;47.40;;;31.85;;
53843;SDS011;39744;53.314;5.710;2023-09-18T03:47:37;50.25;;;32.17;;
53843;SDS011;39744;53.314;5.710;2023-09-18T03:50:09;56.70;;;32.47;;
53843;SDS011;39744;53.314;5.710;2023-09-18T03:52:38;46.70;;;30.73;;
53843;SDS011;39744;53.314;5.710;2023-09-18T03:55:05;44.50;;;30.60;;
53843;SDS011;39744;53.314;5.710;2023-09-18T03:57:31;46.33;;;30.40;;
53843;SDS011;39744;53.314;5.710;2023-09-18T03:59:57;44.58;;;31.25;;
53843;SDS011;39744;53.314;5.710;2023-09-18T04:02:25;45.90;;;30.30;;
53843;SDS011;39744;53.314;5.710;2023-09-18T04:04:51;45.22;;;31.98;;
53843;SDS011;39744;53.314;5.710;2023-09-18T04:07:20;52.10;;;33.40;;
53843;SDS011;39744;53.314;5.710;2023-09-18T04:09:47;45.38;;;31.77;;
53843;SDS011;39744;53.314;5.710;2023-09-18T04:12:14;46.92;;;32.78;;
53843;SDS011;39744;53.314;5.710;2023-09-18T04:14:40;49.90;;;31.63;;
53843;SDS011;39744;53.314;5.710;2023-09-18T04:17:06;46.28;;;32.55;;
53843;SDS011;39744;53.314;5.710;2023-09-18T04:19:33;44.75;;;31.60;;
53843;SDS011;39744;53.314;5.710;2023-09-18T04:21:59;45.90;;;31.95;;
53843;SDS011;39744;53.314;5.710;2023-09-18T04:24:26;45.33;;;31.15;;
53843;SDS011;39744;53.314;5.710;2023-09-18T04:26:52;49.83;;;33.00;;
53843;SDS011;39744;53.314;5.710;2023-09-18T04:29:18;51.03;;;32.95;;
53843;SDS011;39744;53.314;5.710;2023-09-18T04:31:48;45.33;;;32.97;;
53843;SDS011;39744;53.314;5.710;2023-09-18T04:34:14;46.83;;;31.73;;
53843;SDS011;39744;53.314;5.710;2023-09-18T04:36:59;49.72;;;33.05;;
53843;SDS011;39744;53.314;5.710;2023-09-18T04:39:26;48.05;;;33.50;;
53843;SDS011;39744;53.314;5.710;2023-09-18T04:41:59;48.78;;;32.05;;
53843;SDS011;39744;53.314;5.710;2023-09-18T04:44:29;45.60;;;31.02;;
53843;SDS011;39744;53.314;5.710;2023-09-18T04:46:56;47.15;;;31.58;;
53843;SDS011;39744;53.314;5.710;2023-09-18T04:49:23;48.80;;;31.67;;
53843;SDS011;39744;53.314;5.710;2023-09-18T04:51:49;46.03;;;31.65;;
53843;SDS011;39744;53.314;5.710;2023-09-18T04:54:15;46.45;;;30.23;;
53843;SDS011;39744;53.314;5.710;2023-09-18T04:56:41;46.08;;;31.77;;
53843;SDS011;39744;53.314;5.710;2023-09-18T04:59:07;46.08;;;32.25;;
53843;SDS011;39744;53.314;5.710;2023-09-18T05:01:33;47.92;;;31.65;;
53843;SDS011;39744;53.314;5.710;2023-09-18T05:04:02;44.42;;;30.13;;
53843;SDS011;39744;53.314;5.710;2023-09-18T05:06:29;48.25;;;30.85;;
53843;SDS011;39744;53.314;5.710;2023-09-18T05:08:55;48.88;;;30.52;;
53843;SDS011;39744;53.314;5.710;2023-09-18T05:11:22;44.53;;;30.00;;
53843;SDS011;39744;53.314;5.710;2023-09-18T05:13:48;40.22;;;28.67;;
53843;SDS011;39744;53.314;5.710;2023-09-18T05:16:14;42.30;;;28.25;;
53843;SDS011;39744;53.314;5.710;2023-09-18T05:18:40;41.58;;;27.48;;
53843;SDS011;39744;53.314;5.710;2023-09-18T05:21:06;43.58;;;28.85;;
53843;SDS011;39744;53.314;5.710;2023-09-18T05:23:34;46.33;;;29.08;;
53843;SDS011;39744;53.314;5.710;2023-09-18T05:26:00;38.47;;;27.42;;
53843;SDS011;39744;53.314;5.710;2023-09-18T05:28:26;43.72;;;28.17;;
53843;SDS011;39744;53.314;5.710;2023-09-18T05:30:53;39.40;;;26.45;;
53843;SDS011;39744;53.314;5.710;2023-09-18T05:33:20;43.17;;;29.02;;
53843;SDS011;39744;53.314;5.710;2023-09-18T05:35:46;43.83;;;27.77;;
53843;SDS011;39744;53.314;5.710;2023-09-18T05:38:13;42.75;;;27.25;;
53843;SDS011;39744;53.314;5.710;2023-09-18T05:40:39;36.13;;;24.58;;
53843;SDS011;39744;53.314;5.710;2023-09-18T05:43:05;41.03;;;26.67;;
53843;SDS011;39744;53.314;5.710;2023-09-18T05:45:33;44.47;;;27.65;;
53843;SDS011;39744;53.314;5.710;2023-09-18T05:47:59;39.08;;;24.45;;
53843;SDS011;39744;53.314;5.710;2023-09-18T05:50:31;37.42;;;24.95;;
53843;SDS011;39744;53.314;5.710;2023-09-18T05:52:58;38.13;;;24.90;;
53843;SDS011;39744;53.314;5.710;2023-09-18T05:55:28;37.95;;;26.27;;
53843;SDS011;39744;53.314;5.710;2023-09-18T05:57:55;36.03;;;25.40;;
53843;SDS011;39744;53.314;5.710;2023-09-18T06:00:25;46.38;;;27.88;;
53843;SDS011;39744;53.314;5.710;2023-09-18T06:02:55;34.85;;;24.35;;
53843;SDS011;39744;53.314;5.710;2023-09-18T06:05:21;36.85;;;24.95;;
53843;SDS011;39744;53.314;5.710;2023-09-18T06:07:48;36.53;;;25.42;;
53843;SDS011;39744;53.314;5.710;2023-09-18T06:10:14;34.65;;;25.35;;
53843;SDS011;39744;53.314;5.710;2023-09-18T06:12:40;36.47;;;23.92;;
53843;SDS011;39744;53.314;5.710;2023-09-18T06:15:07;32.97;;;23.92;;
53843;SDS011;39744;53.314;5.710;2023-09-18T06:17:40;30.65;;;22.90;;
53843;SDS011;39744;53.314;5.710;2023-09-18T06:20:06;29.55;;;22.10;;
53843;SDS011;39744;53.314;5.710;2023-09-18T06:22:34;31.27;;;22.70;;
53843;SDS011;39744;53.314;5.710;2023-09-18T06:25:00;28.85;;;21.65;;
53843;SDS011;39744;53.314;5.710;2023-09-18T06:27:26;29.02;;;22.40;;
53843;SDS011;39744;53.314;5.710;2023-09-18T06:29:52;28.08;;;21.25;;
53843;SDS011;39744;53.314;5.710;2023-09-18T06:32:18;26.00;;;18.35;;
53843;SDS011;39744;53.314;5.710;2023-09-18T06:34:44;23.83;;;16.40;;
53843;SDS011;39744;53.314;5.710;2023-09-18T06:37:12;24.85;;;17.20;;
53843;SDS011;39744;53.314;5.710;2023-09-18T06:39:38;26.73;;;18.40;;
53843;SDS011;39744;53.314;5.710;2023-09-18T06:42:05;27.92;;;17.02;;
53843;SDS011;39744;53.314;5.710;2023-09-18T06:44:31;20.02;;;12.82;;
53843;SDS011;39744;53.314;5.710;2023-09-18T06:46:57;13.27;;;9.43;;
53843;SDS011;39744;53.314;5.710;2023-09-18T06:49:23;9.93;;;6.03;;
53843;SDS011;39744;53.314;5.710;2023-09-18T06:51:49;16.98;;;6.93;;
53843;SDS011;39744;53.314;5.710;2023-09-18T06:54:15;16.30;;;7.50;;
53843;SDS011;39744;53.314;5.710;2023-09-18T06:56:41;10.48;;;6.50;;
53843;SDS011;39744;53.314;5.710;2023-09-18T06:59:09;23.35;;;7.78;;
53843;SDS011;39744;53.314;5.710;2023-09-18T07:01:36;23.70;;;8.48;;
53843;SDS011;39744;53.314;5.710;2023-09-18T07:04:03;22.83;;;9.65;;
53843;SDS011;39744;53.314;5.710;2023-09-18T07:06:30;18.55;;;7.88;;
53843;SDS011;39744;53.314;5.710;2023-09-18T07:08:56;14.35;;;7.38;;
53843;SDS011;39744;53.314;5.710;2023-09-18T07:11:22;13.25;;;5.78;;
53843;SDS011;39744;53.314;5.710;2023-09-18T07:13:48;11.43;;;5.72;;
53843;SDS011;39744;53.314;5.710;2023-09-18T07:16:14;11.00;;;5.82;;
53843;SDS011;39744;53.314;5.710;2023-09-18T07:18:40;14.20;;;6.55;;
53843;SDS011;39744;53.314;5.710;2023-09-18T07:21:07;13.85;;;6.20;;
53843;SDS011;39744;53.314;5.710;2023-09-18T07:23:33;13.75;;;6.78;;
53843;SDS011;39744;53.314;5.710;2023-09-18T07:26:02;14.50;;;7.38;;
53843;SDS011;39744;53.314;5.710;2023-09-18T07:28:28;13.57;;;7.68;;
53843;SDS011;39744;53.314;5.710;2023-09-18T07:30:54;15.07;;;7.65;;
53843;SDS011;39744;53.314;5.710;2023-09-18T07:33:21;15.93;;;8.50;;
53843;SDS011;39744;53.314;5.710;2023-09-18T07:35:47;13.65;;;8.60;;
53843;SDS011;39744;53.314;5.710;2023-09-18T07:38:14;17.42;;;9.63;;
53843;SDS011;39744;53.314;5.710;2023-09-18T07:40:44;16.85;;;10.48;;
53843;SDS011;39744;53.314;5.710;2023-09-18T07:43:12;21.38;;;11.18;;
53843;SDS011;39744;53.314;5.710;2023-09-18T07:45:38;18.02;;;10.10;;
53843;SDS011;39744;53.314;5.710;2023-09-18T07:48:08;23.50;;;12.02;;
53843;SDS011;39744;53.314;5.710;2023-09-18T07:50:34;19.08;;;11.27;;
53843;SDS011;39744;53.314;5.710;2023-09-18T07:53:02;19.77;;;10.95;;
53843;SDS011;39744;53.314;5.710;2023-09-18T07:55:28;18.73;;;11.35;;
53843;SDS011;39744;53.314;5.710;2023-09-18T07:57:55;23.38;;;11.82;;
53843;SDS011;39744;53.314;5.710;2023-09-18T08:00:21;19.48;;;10.65;;
53843;SDS011;39744;53.314;5.710;2023-09-18T08:02:47;20.73;;;11.40;;
53843;SDS011;39744;53.314;5.710;2023-09-18T08:05:15;21.20;;;11.70;;
53843;SDS011;39744;53.314;5.710;2023-09-18T08:07:41;18.80;;;10.85;;
53843;SDS011;39744;53.314;5.710;2023-09-18T08:10:07;16.40;;;9.57;;
53843;SDS011;39744;53.314;5.710;2023-09-18T08:12:34;17.00;;;9.05;;
53843;SDS011;39744;53.314;5.710;2023-09-18T08:15:00;13.60;;;7.80;;
53843;SDS011;39744;53.314;5.710;2023-09-18T08:17:28;12.80;;;6.90;;
53843;SDS011;39744;53.314;5.710;2023-09-18T08:19:54;10.98;;;5.60;;
53843;SDS011;39744;53.314;5.710;2023-09-18T08:22:20;8.60;;;5.93;;
53843;SDS011;39744;53.314;5.710;2023-09-18T08:24:47;15.88;;;6.70;;
53843;SDS011;39744;53.314;5.710;2023-09-18T08:27:16;14.85;;;7.72;;
53843;SDS011;39744;53.314;5.710;2023-09-18T08:29:43;11.25;;;6.53;;
53843;SDS011;39744;53.314;5.710;2023-09-18T08:32:09;19.85;;;9.20;;
53843;SDS011;39744;53.314;5.710;2023-09-18T08:34:35;19.30;;;9.90;;
53843;SDS011;39744;53.314;5.710;2023-09-18T08:37:03;29.42;;;13.73;;
53843;SDS011;39744;53.314;5.710;2023-09-18T08:39:29;45.53;;;16.75;;
53843;SDS011;39744;53.314;5.710;2023-09-18T08:41:59;34.20;;;15.60;;
53843;SDS011;39744;53.314;5.710;2023-09-18T08:44:29;44.05;;;17.60;;
53843;SDS011;39744;53.314;5.710;2023-09-18T08:46:55;51.42;;;19.73;;
53843;SDS011;39744;53.314;5.710;2023-09-18T08:49:22;35.38;;;16.88;;
53843;SDS011;39744;53.314;5.710;2023-09-18T08:51:49;44.28;;;18.85;;
53843;SDS011;39744;53.314;5.710;2023-09-18T08:54:17;62.65;;;22.58;;
53843;SDS011;39744;53.314;5.710;2023-09-18T08:56:43;32.65;;;17.80;;
53843;SDS011;39744;53.314;5.710;2023-09-18T08:59:09;41.20;;;18.77;;
53843;SDS011;39744;53.314;5.710;2023-09-18T09:01:35;46.13;;;19.00;;
53843;SDS011;39744;53.314;5.710;2023-09-18T09:04:01;38.08;;;18.13;;
53843;SDS011;39744;53.314;5.710;2023-09-18T09:06:29;39.90;;;17.33;;
53843;SDS011;39744;53.314;5.710;2023-09-18T09:08:55;57.92;;;18.58;;
53843;SDS011;39744;53.314;5.710;2023-09-18T09:11:21;32.58;;;16.33;;
53843;SDS011;39744;53.314;5.710;2023-09-18T09:13:47;38.25;;;16.88;;
53843;SDS011;39744;53.314;5.710;2023-09-18T09:16:13;24.77;;;13.27;;
53843;SDS011;39744;53.314;5.710;2023-09-18T09:18:48;21.92;;;13.05;;
53843;SDS011;39744;53.314;5.710;2023-09-18T09:21:14;17.35;;;11.25;;
53843;SDS011;39744;53.314;5.710;2023-09-18T09:23:45;21.58;;;12.00;;
53843;SDS011;39744;53.314;5.710;2023-09-18T09:26:14;20.38;;;12.43;;
53843;SDS011;39744;53.314;5.710;2023-09-18T09:28:42;18.90;;;12.38;;
53843;SDS011;39744;53.314;5.710;2023-09-18T09:31:08;17.92;;;12.32;;
53843;SDS011;39744;53.314;5.710;2023-09-18T09:33:35;19.73;;;11.63;;
53843;SDS011;39744;53.314;5.710;2023-09-18T09:36:04;16.83;;;12.23;;
53843;SDS011;39744;53.314;5.710;2023-09-18T09:38:31;18.85;;;13.43;;
53843;SDS011;39744;53.314;5.710;2023-09-18T09:40:58;24.40;;;14.77;;
53843;SDS011;39744;53.314;5.710;2023-09-18T09:43:25;23.10;;;14.05;;
53843;SDS011;39744;53.314;5.710;2023-09-18T09:45:58;20.67;;;14.50;;
53843;SDS011;39744;53.314;5.710;2023-09-18T09:50:51;21.88;;;14.15;;
53843;SDS011;39744;53.314;5.710;2023-09-18T09:53:18;19.65;;;15.25;;
53843;SDS011;39744;53.314;5.710;2023-09-18T09:55:44;21.55;;;15.77;;
53843;SDS011;39744;53.314;5.710;2023-09-18T09:58:11;21.17;;;14.98;;
53843;SDS011;39744;53.314;5.710;2023-09-18T10:00:49;21.50;;;15.57;;
53843;SDS011;39744;53.314;5.710;2023-09-18T10:03:17;19.23;;;15.02;;
53843;SDS011;39744;53.314;5.710;2023-09-18T10:05:44;21.17;;;15.93;;
53843;SDS011;39744;53.314;5.710;2023-09-18T10:08:12;17.90;;;13.75;;
53843;SDS011;39744;53.314;5.710;2023-09-18T10:10:39;14.48;;;11.38;;
53843;SDS011;39744;53.314;5.710;2023-09-18T10:13:08;16.40;;;11.40;;
53843;SDS011;39744;53.314;5.710;2023-09-18T10:15:34;13.98;;;10.10;;
53843;SDS011;39744;53.314;5.710;2023-09-18T10:18:04;17.13;;;11.45;;
53843;SDS011;39744;53.314;5.710;2023-09-18T10:20:33;14.27;;;11.60;;
53843;SDS011;39744;53.314;5.710;2023-09-18T10:23:02;15.65;;;13.18;;
53843;SDS011;39744;53.314;5.710;2023-09-18T10:25:30;18.23;;;14.00;;
53843;SDS011;39744;53.314;5.710;2023-09-18T10:27:58;18.98;;;13.80;;
53843;SDS011;39744;53.314;5.710;2023-09-18T10:30:27;15.52;;;12.27;;
53843;SDS011;39744;53.314;5.710;2023-09-18T10:32:53;13.50;;;10.20;;
53843;SDS011;39744;53.314;5.710;2023-09-18T10:35:19;15.05;;;9.63;;
53843;SDS011;39744;53.314;5.710;2023-09-18T10:37:46;15.27;;;10.50;;
53843;SDS011;39744;53.314;5.710;2023-09-18T10:40:13;12.85;;;9.13;;
53843;SDS011;39744;53.314;5.710;2023-09-18T10:42:41;13.55;;;7.20;;
53843;SDS011;39744;53.314;5.710;2023-09-18T10:45:11;12.25;;;6.35;;
53843;SDS011;39744;53.314;5.710;2023-09-18T10:47:38;12.02;;;7.80;;
53843;SDS011;39744;53.314;5.710;2023-09-18T10:50:05;13.05;;;7.88;;
53843;SDS011;39744;53.314;5.710;2023-09-18T10:52:32;12.57;;;8.48;;
53843;SDS011;39744;53.314;5.710;2023-09-18T10:54:58;10.73;;;7.93;;
53843;SDS011;39744;53.314;5.710;2023-09-18T10:57:27;9.73;;;6.57;;
53843;SDS011;39744;53.314;5.710;2023-09-18T10:59:54;7.68;;;4.78;;
53843;SDS011;39744;53.314;5.710;2023-09-18T11:02:20;10.32;;;5.03;;
53843;SDS011;39744;53.314;5.710;2023-09-18T11:04:46;7.70;;;4.78;;
53843;SDS011;39744;53.314;5.710;2023-09-18T11:07:20;8.25;;;5.25;;
53843;SDS011;39744;53.314;5.710;2023-09-18T11:09:46;12.68;;;5.20;;
53843;SDS011;39744;53.314;5.710;2023-09-18T11:12:16;10.02;;;4.72;;
53843;SDS011;39744;53.314;5.710;2023-09-18T11:17:28;8.40;;;4.18;;
53843;SDS011;39744;53.314;5.710;2023-09-18T11:20:01;7.22;;;3.45;;
53843;SDS011;39744;53.314;5.710;2023-09-18T11:22:27;7.38;;;3.33;;
53843;SDS011;39744;53.314;5.710;2023-09-18T11:24:53;11.73;;;3.78;;
53843;SDS011;39744;53.314;5.710;2023-09-18T11:27:24;9.30;;;3.58;;
53843;SDS011;39744;53.314;5.710;2023-09-18T11:29:51;8.27;;;3.38;;
53843;SDS011;39744;53.314;5.710;2023-09-18T11:32:37;8.05;;;2.75;;
53843;SDS011;39744;53.314;5.710;2023-09-18T11:35:08;8.60;;;3.38;;
53843;SDS011;39744;53.314;5.710;2023-09-18T11:37:35;8.15;;;2.97;;
53843;SDS011;39744;53.314;5.710;2023-09-18T11:40:01;10.27;;;3.42;;
53843;SDS011;39744;53.314;5.710;2023-09-18T11:42:29;9.20;;;3.75;;
53843;SDS011;39744;53.314;5.710;2023-09-18T11:44:55;8.35;;;3.53;;
53843;SDS011;39744;53.314;5.710;2023-09-18T11:47:23;8.95;;;4.18;;
53843;SDS011;39744;53.314;5.710;2023-09-18T11:49:57;10.27;;;3.60;;
53843;SDS011;39744;53.314;5.710;2023-09-18T11:52:24;7.93;;;3.47;;
53843;SDS011;39744;53.314;5.710;2023-09-18T11:54:50;10.10;;;3.60;;
53843;SDS011;39744;53.314;5.710;2023-09-18T11:57:17;7.45;;;3.97;;
53843;SDS011;39744;53.314;5.710;2023-09-18T11:59:45;9.15;;;3.95;;
53843;SDS011;39744;53.314;5.710;2023-09-18T12:02:32;11.27;;;4.50;;
53843;SDS011;39744;53.314;5.710;2023-09-18T12:05:11;9.07;;;4.90;;
53843;SDS011;39744;53.314;5.710;2023-09-18T12:07:37;9.80;;;4.63;;
53843;SDS011;39744;53.314;5.710;2023-09-18T12:10:04;9.45;;;4.47;;
53843;SDS011;39744;53.314;5.710;2023-09-18T12:12:31;7.80;;;4.63;;
53843;SDS011;39744;53.314;5.710;2023-09-18T12:14:58;11.38;;;5.30;;
53843;SDS011;39744;53.314;5.710;2023-09-18T12:17:24;11.98;;;4.75;;
53843;SDS011;39744;53.314;5.710;2023-09-18T12:19:51;9.55;;;4.60;;
53843;SDS011;39744;53.314;5.710;2023-09-18T12:22:22;13.02;;;4.65;;
53843;SDS011;39744;53.314;5.710;2023-09-18T12:24:49;11.55;;;5.10;;
53843;SDS011;39744;53.314;5.710;2023-09-18T12:27:15;11.43;;;4.72;;
53843;SDS011;39744;53.314;5.710;2023-09-18T12:29:42;11.15;;;4.30;;
53843;SDS011;39744;53.314;5.710;2023-09-18T12:32:09;7.63;;;4.18;;
53843;SDS011;39744;53.314;5.710;2023-09-18T12:34:40;13.50;;;4.70;;
53843;SDS011;39744;53.314;5.710;2023-09-18T12:37:08;8.10;;;4.22;;
53843;SDS011;39744;53.314;5.710;2023-09-18T12:39:36;8.95;;;4.10;;
53843;SDS011;39744;53.314;5.710;2023-09-18T12:42:02;7.60;;;4.13;;
53843;SDS011;39744;53.314;5.710;2023-09-18T12:44:29;7.57;;;3.85;;
53843;SDS011;39744;53.314;5.710;2023-09-18T12:46:55;9.77;;;4.18;;
53843;SDS011;39744;53.314;5.710;2023-09-18T12:49:22;7.15;;;4.07;;
53843;SDS011;39744;53.314;5.710;2023-09-18T12:54:35;6.97;;;3.80;;
53843;SDS011;39744;53.314;5.710;2023-09-18T12:57:02;9.20;;;3.40;;
53843;SDS011;39744;53.314;5.710;2023-09-18T12:59:33;8.00;;;3.33;;
53843;SDS011;39744;53.314;5.710;2023-09-18T13:02:00;7.65;;;3.60;;
53843;SDS011;39744;53.314;5.710;2023-09-18T13:04:29;8.45;;;3.65;;
53843;SDS011;39744;53.314;5.710;2023-09-18T13:07:12;7.18;;;3.85;;
53843;SDS011;39744;53.314;5.710;2023-09-18T13:09:38;9.47;;;3.80;;
53843;SDS011;39744;53.314;5.710;2023-09-18T13:12:04;7.68;;;3.60;;
53843;SDS011;39744;53.314;5.710;2023-09-18T13:14:56;8.00;;;3.63;;
53843;SDS011;39744;53.314;5.710;2023-09-18T13:17:17;9.98;;;3.63;;
53843;SDS011;39744;53.314;5.710;2023-09-18T13:19:43;13.75;;;3.85;;
53843;SDS011;39744;53.314;5.710;2023-09-18T13:22:09;10.27;;;3.28;;
53843;SDS011;39744;53.314;5.710;2023-09-18T13:24:35;8.38;;;3.30;;
53843;SDS011;39744;53.314;5.710;2023-09-18T13:27:02;6.93;;;2.85;;
53843;SDS011;39744;53.314;5.710;2023-09-18T13:29:28;7.93;;;3.50;;
53843;SDS011;39744;53.314;5.710;2023-09-18T13:31:54;6.35;;;3.00;;
53843;SDS011;39744;53.314;5.710;2023-09-18T13:34:21;7.88;;;2.70;;
53843;SDS011;39744;53.314;5.710;2023-09-18T13:36:47;7.45;;;2.70;;
53843;SDS011;39744;53.314;5.710;2023-09-18T13:39:13;6.40;;;2.95;;
53843;SDS011;39744;53.314;5.710;2023-09-18T13:41:43;8.18;;;2.95;;
53843;SDS011;39744;53.314;5.710;2023-09-18T13:44:09;7.68;;;3.88;;
53843;SDS011;39744;53.314;5.710;2023-09-18T13:46:36;6.75;;;4.18;;
53843;SDS011;39744;53.314;5.710;2023-09-18T13:49:05;10.15;;;4.60;;
53843;SDS011;39744;53.314;5.710;2023-09-18T13:51:31;10.38;;;4.95;;
53843;SDS011;39744;53.314;5.710;2023-09-18T13:53:57;9.57;;;6.28;;
53843;SDS011;39744;53.314;5.710;2023-09-18T13:56:24;8.70;;;5.88;;
53843;SDS011;39744;53.314;5.710;2023-09-18T13:58:54;11.55;;;5.63;;
53843;SDS011;39744;53.314;5.710;2023-09-18T14:01:21;8.52;;;5.15;;
53843;SDS011;39744;53.314;5.710;2023-09-18T14:03:47;5.75;;;4.20;;
53843;SDS011;39744;53.314;5.710;2023-09-18T14:06:13;8.70;;;3.95;;
53843;SDS011;39744;53.314;5.710;2023-09-18T14:08:39;7.18;;;3.53;;
53843;SDS011;39744;53.314;5.710;2023-09-18T14:11:05;5.90;;;3.30;;
53843;SDS011;39744;53.314;5.710;2023-09-18T14:13:31;6.25;;;3.60;;
53843;SDS011;39744;53.314;5.710;2023-09-18T14:15:58;8.02;;;3.40;;
53843;SDS011;39744;53.314;5.710;2023-09-18T14:18:24;6.97;;;3.42;;
53843;SDS011;39744;53.314;5.710;2023-09-18T14:20:50;7.60;;;3.50;;
53843;SDS011;39744;53.314;5.710;2023-09-18T14:23:16;9.15;;;4.00;;
53843;SDS011;39744;53.314;5.710;2023-09-18T14:25:42;5.85;;;3.60;;
53843;SDS011;39744;53.314;5.710;2023-09-18T14:28:08;6.25;;;3.40;;
53843;SDS011;39744;53.314;5.710;2023-09-18T14:30:35;9.18;;;3.45;;
53843;SDS011;39744;53.314;5.710;2023-09-18T14:33:01;8.27;;;3.70;;
53843;SDS011;39744;53.314;5.710;2023-09-18T14:35:27;8.82;;;3.80;;
53843;SDS011;39744;53.314;5.710;2023-09-18T14:37:53;8.02;;;3.90;;